Time;durP1;ratioP1;P1;durP2;ratioP2;P2;SDS_P1;SDS_P2;PMS_P1;PMS_P2;Temp;Humidity;BMP_temperature;BMP_pressure;BME280_temperature;BME280_humidity;BME280_pressure;Samples;Min_cycle;Max_cycle;Signal;HPM_P1;HPM_P2
2023/06/04 00:00:25;;;;;;;;;6.33;6.00;;;;;-147.17;100.00;48604.19;5072031;27;51043;-62
2023/06/04 00:02:50;;;;;;;;;7.00;7.00;;;;;-147.17;100.00;48592.38;5097320;27;51466;-62
2023/06/04 00:05:15;;;;;;;;;7.00;6.00;;;;;-147.17;100.00;48533.34;5071392;28;53854;-61
2023/06/04 00:07:41;;;;;;;;;6.67;6.67;;;;;-147.17;100.00;48537.28;5071696;28;51068;-63
2023/06/04 00:10:06;;;;;;;;;6.67;6.67;;;;;-147.17;100.00;48525.50;5090335;27;51535;-62
2023/06/04 00:12:32;;;;;;;;;8.33;7.67;;;;;-147.17;100.00;48521.56;5093361;27;51055;-62
2023/06/04 00:14:57;;;;;;;;;10.00;9.33;;;;;-147.17;100.00;48505.81;5083745;27;52418;-62
2023/06/04 00:17:22;;;;;;;;;8.00;8.00;;;;;-147.17;100.00;48523.53;5072964;28;51066;-62
2023/06/04 00:19:48;;;;;;;;;7.67;7.00;;;;;-147.17;100.00;48501.88;5073086;27;51196;-62
2023/06/04 00:22:13;;;;;;;;;6.33;6.33;;;;;-147.17;100.00;48484.16;5086380;27;52274;-62
2023/06/04 00:24:41;;;;;;;;;7.00;7.00;;;;;-147.17;100.00;48488.09;5075930;27;52027;-62
2023/06/04 00:27:08;;;;;;;;;9.00;7.00;;;;;-147.17;100.00;48464.50;5088819;27;50971;-61
2023/06/04 00:29:34;;;;;;;;;7.00;6.00;;;;;-147.17;100.00;48480.22;5084838;27;51079;-61
2023/06/04 00:31:59;;;;;;;;;7.33;6.00;;;;;-147.17;100.00;48452.69;5072880;28;51204;-61
2023/06/04 00:34:24;;;;;;;;;7.00;7.00;;;;;-147.17;100.00;48429.06;5072598;27;51924;-62
2023/06/04 00:36:50;;;;;;;;;6.33;6.33;;;;;-147.17;100.00;48438.91;5072610;27;51274;-61
2023/06/04 00:39:15;;;;;;;;;6.33;5.00;;;;;-147.17;100.00;48446.78;5093255;27;51277;-63
2023/06/04 00:41:41;;;;;;;;;6.67;6.67;;;;;-147.17;100.00;48340.53;5092291;27;50990;-62
2023/06/04 00:44:06;;;;;;;;;8.00;6.67;;;;;-147.17;100.00;48419.25;5084273;27;51864;-62
2023/06/04 00:46:32;;;;;;;;;5.67;5.33;;;;;-147.17;100.00;48429.06;5087065;27;51101;-62
2023/06/04 00:48:57;;;;;;;;;6.00;5.00;;;;;-147.17;100.00;48375.94;5092076;27;50926;-63
2023/06/04 00:51:23;;;;;;;;;7.33;7.00;;;;;-147.17;100.00;48417.28;5093011;27;51333;-62
2023/06/04 00:53:50;;;;;;;;;6.00;5.33;;;;;-147.17;100.00;48411.38;5092089;27;51686;-62
2023/06/04 00:56:16;;;;;;;;;8.00;8.00;;;;;-147.17;100.00;48411.38;5092876;27;51146;-63
2023/06/04 00:58:42;;;;;;;;;7.33;7.00;;;;;-147.17;100.00;48383.81;5090067;27;51311;-61
2023/06/04 01:01:16;;;;;;;;;6.33;6.33;;;;;-147.17;100.00;48425.13;5084193;27;51242;-61
2023/06/04 01:03:46;;;;;;;;;9.00;8.00;;;;;-147.17;100.00;48433.00;5092373;27;52264;-61
2023/06/04 01:06:42;;;;;;;;;6.67;6.00;;;;;-147.17;100.00;48372.03;5092703;27;51212;-62
2023/06/04 01:09:10;;;;;;;;;7.00;7.00;;;;;-147.17;100.00;48364.16;5084873;27;51163;-61
2023/06/04 01:11:37;;;;;;;;;6.67;6.67;;;;;-147.17;100.00;48401.53;5077063;27;50930;-62
2023/06/04 01:14:05;;;;;;;;;6.67;6.00;;;;;-147.17;100.00;48332.66;5086342;27;52227;-62
2023/06/04 01:16:40;;;;;;;;;7.00;7.00;;;;;-147.17;100.00;48346.44;5071710;27;51185;-62
2023/06/04 01:19:20;;;;;;;;;5.00;5.00;;;;;-147.17;100.00;48403.50;5085330;27;51119;-62
2023/06/04 01:21:48;;;;;;;;;7.00;6.67;;;;;-147.17;100.00;48344.47;5072297;27;51215;-62
2023/06/04 01:24:15;;;;;;;;;7.00;5.67;;;;;-147.17;100.00;48328.72;5078116;27;52057;-62
2023/06/04 01:26:41;;;;;;;;;7.00;7.00;;;;;-147.17;100.00;48295.28;5072893;27;51039;-62
2023/06/04 01:29:07;;;;;;;;;7.33;7.00;;;;;-147.17;100.00;48342.50;5088198;27;51290;-61
2023/06/04 01:31:32;;;;;;;;;6.67;6.67;;;;;-147.17;100.00;48297.25;5092572;27;50838;-61
2023/06/04 01:33:58;;;;;;;;;7.00;7.00;;;;;-147.17;100.00;48320.88;5085091;27;50992;-62
2023/06/04 01:36:24;;;;;;;;;6.00;6.00;;;;;-147.17;100.00;48373.97;5074814;28;51167;-62
2023/06/04 01:38:51;;;;;;;;;4.67;4.00;;;;;-147.17;100.00;48328.72;5088847;27;51155;-62
2023/06/04 01:41:16;;;;;;;;;8.00;8.00;;;;;-147.17;100.00;48332.66;5096402;27;51432;-62
2023/06/04 01:43:42;;;;;;;;;5.00;5.00;;;;;-147.17;100.00;48336.59;5094880;27;51958;-62
2023/06/04 01:46:07;;;;;;;;;6.67;6.00;;;;;-147.17;100.00;48293.31;5096284;27;51163;-62
2023/06/04 01:48:33;;;;;;;;;5.67;5.67;;;;;-147.17;100.00;48383.81;5093739;27;51048;-61
2023/06/04 01:50:58;;;;;;;;;7.67;7.00;;;;;-147.17;100.00;48336.59;5086571;27;51434;-61
2023/06/04 01:53:24;;;;;;;;;4.33;4.00;;;;;-147.17;100.00;48383.81;5075331;27;51226;-63
2023/06/04 01:55:50;;;;;;;;;5.67;5.67;;;;;-147.17;100.00;48360.22;5075199;27;51322;-62
2023/06/04 01:58:22;;;;;;;;;6.00;5.33;;;;;-147.17;100.00;48340.53;5082430;27;51146;-61
2023/06/04 02:00:49;;;;;;;;;6.00;5.33;;;;;-147.17;100.00;48269.69;5095977;27;51248;-61
2023/06/04 02:03:15;;;;;;;;;6.33;6.00;;;;;-147.17;100.00;48320.88;5095901;27;52653;-62
2023/06/04 02:05:40;;;;;;;;;5.00;5.00;;;;;-147.17;100.00;48326.75;5093283;27;51080;-61
2023/06/04 02:08:06;;;;;;;;;4.67;4.67;;;;;-147.17;100.00;48283.47;5091060;27;51752;-62
2023/06/04 02:10:31;;;;;;;;;5.00;5.00;;;;;-147.17;100.00;48269.69;5095981;27;51295;-62
2023/06/04 02:12:59;;;;;;;;;5.67;5.67;;;;;-147.17;100.00;48281.50;5086446;27;52634;-61
2023/06/04 02:15:26;;;;;;;;;6.00;6.00;;;;;-147.17;100.00;48230.34;5075338;27;50892;-61
2023/06/04 02:17:58;;;;;;;;;7.67;7.33;;;;;-147.17;100.00;48234.28;5081478;27;51240;-62
2023/06/04 02:20:23;;;;;;;;;6.67;6.67;;;;;-147.17;100.00;48297.25;5083345;27;50941;-62
2023/06/04 02:22:49;;;;;;;;;6.00;5.33;;;;;-147.17;100.00;48291.34;5085023;27;51105;-62
2023/06/04 02:25:14;;;;;;;;;3.67;3.67;;;;;-147.17;100.00;48246.09;5081435;27;50974;-63
2023/06/04 02:27:40;;;;;;;;;6.67;5.67;;;;;-147.17;100.00;48246.09;5077391;27;51242;-62
2023/06/04 02:30:06;;;;;;;;;5.67;5.67;;;;;-147.17;100.00;48340.53;5086917;27;50894;-62
2023/06/04 02:32:33;;;;;;;;;4.67;4.67;;;;;-147.17;100.00;48248.06;5075218;27;51927;-62
2023/06/04 02:34:58;;;;;;;;;4.67;4.67;;;;;-147.17;100.00;48218.56;5075381;27;51125;-62
2023/06/04 02:37:24;;;;;;;;;6.67;6.67;;;;;-147.17;100.00;48185.09;5073629;27;51189;-61
2023/06/04 02:39:49;;;;;;;;;4.67;4.33;;;;;-147.17;100.00;48189.03;5094193;27;51139;-61
2023/06/04 02:42:14;;;;;;;;;6.00;6.00;;;;;-147.17;100.00;48234.28;5095692;27;51184;-61
2023/06/04 02:44:40;;;;;;;;;5.33;5.33;;;;;-147.17;100.00;48214.63;5093956;27;51083;-61
2023/06/04 02:47:06;;;;;;;;;4.33;4.33;;;;;-147.17;100.00;48244.13;5094577;27;51218;-61
2023/06/04 02:49:31;;;;;;;;;5.67;5.67;;;;;-147.17;100.00;48250.03;5092952;27;51405;-61
2023/06/04 02:51:57;;;;;;;;;6.67;6.67;;;;;-147.17;100.00;48236.25;5094552;27;52645;-62
2023/06/04 02:54:22;;;;;;;;;5.00;4.67;;;;;-147.17;100.00;48250.03;5093217;27;51127;-61
2023/06/04 02:56:49;;;;;;;;;4.33;4.33;;;;;-147.17;100.00;48228.38;5095661;27;51150;-61
2023/06/04 02:59:14;;;;;;;;;4.33;4.33;;;;;-147.17;100.00;48222.47;5093791;27;51156;-61
2023/06/04 03:01:40;;;;;;;;;5.33;5.33;;;;;-147.17;100.00;48238.22;5094758;27;51171;-61
2023/06/04 03:04:09;;;;;;;;;5.00;4.67;;;;;-147.17;100.00;48230.34;5094930;27;51096;-61
2023/06/04 03:06:38;;;;;;;;;5.67;5.33;;;;;-147.17;100.00;48257.91;5094804;27;51186;-61
2023/06/04 03:09:03;;;;;;;;;6.00;4.67;;;;;-147.17;100.00;48187.06;5093689;27;51390;-61
2023/06/04 03:11:29;;;;;;;;;5.33;5.33;;;;;-147.17;100.00;48230.34;5090704;27;51959;-61
2023/06/04 03:13:54;;;;;;;;;5.00;4.67;;;;;-147.17;100.00;48277.56;5080750;27;50958;-61
2023/06/04 03:16:20;;;;;;;;;4.67;4.67;;;;;-147.17;100.00;48289.38;5073905;27;50953;-62
2023/06/04 03:18:46;;;;;;;;;5.33;5.33;;;;;-147.17;100.00;48141.81;5084147;27;50971;-61
2023/06/04 03:21:11;;;;;;;;;4.33;4.33;;;;;-147.17;100.00;48194.94;5090284;27;51857;-61
2023/06/04 03:23:37;;;;;;;;;5.67;5.33;;;;;-147.17;100.00;48224.44;5084535;27;51114;-61
2023/06/04 03:26:03;;;;;;;;;6.00;5.67;;;;;-147.17;100.00;48255.94;5091087;27;51245;-61
2023/06/04 03:28:29;;;;;;;;;5.33;5.00;;;;;-147.17;100.00;48246.09;5083536;27;50905;-61
2023/06/04 03:30:54;;;;;;;;;5.00;5.00;;;;;-147.17;100.00;48257.91;5080368;27;50988;-61
2023/06/04 03:33:19;;;;;;;;;5.00;5.00;;;;;-147.17;100.00;48222.47;5074142;27;51092;-61
2023/06/04 03:35:45;;;;;;;;;6.67;6.00;;;;;-147.17;100.00;48289.38;5074294;28;51559;-61
2023/06/04 03:38:10;;;;;;;;;4.67;4.67;;;;;-147.17;100.00;48218.56;5078294;27;51009;-61
2023/06/04 03:40:36;;;;;;;;;5.00;5.00;;;;;-147.17;100.00;48246.09;5094348;27;51066;-61
2023/06/04 03:43:03;;;;;;;;;5.33;5.33;;;;;-147.17;100.00;48261.84;5092606;27;51228;-61
2023/06/04 03:45:29;;;;;;;;;5.00;4.00;;;;;-147.17;100.00;48248.06;5085156;27;51129;-63
2023/06/04 03:47:54;;;;;;;;;4.67;4.67;;;;;-147.17;100.00;48214.63;5075725;27;51191;-61
2023/06/04 03:50:19;;;;;;;;;5.67;5.67;;;;;-147.17;100.00;48226.41;5093996;27;51005;-61
2023/06/04 03:52:45;;;;;;;;;6.00;6.00;;;;;-147.17;100.00;48250.03;5083436;27;51133;-61
2023/06/04 03:55:13;;;;;;;;;6.00;5.00;;;;;-147.17;100.00;48202.81;5074172;28;50932;-61
2023/06/04 03:57:39;;;;;;;;;7.00;6.00;;;;;-147.17;100.00;48269.69;5073922;27;51360;-62
2023/06/04 04:00:06;;;;;;;;;3.00;3.00;;;;;-147.17;100.00;48202.81;5092273;27;51803;-62
2023/06/04 04:02:32;;;;;;;;;6.00;6.00;;;;;-147.17;100.00;48192.97;5093489;27;51098;-61
2023/06/04 04:04:57;;;;;;;;;6.00;6.00;;;;;-147.17;100.00;48202.81;5077889;27;51090;-61
2023/06/04 04:07:24;;;;;;;;;5.00;5.00;;;;;-147.17;100.00;48198.88;5074011;28;50964;-61
2023/06/04 04:09:49;;;;;;;;;5.33;5.00;;;;;-147.17;100.00;48242.16;5085725;27;51264;-61
2023/06/04 04:12:15;;;;;;;;;4.00;4.00;;;;;-147.17;100.00;48143.78;5083472;27;51097;-61
2023/06/04 04:14:40;;;;;;;;;4.00;4.00;;;;;-147.17;100.00;48189.03;5090090;27;51089;-63
2023/06/04 04:17:06;;;;;;;;;4.67;4.67;;;;;-147.17;100.00;48163.47;5074401;27;51200;-61
2023/06/04 04:19:31;;;;;;;;;4.00;4.00;;;;;-147.17;100.00;48269.69;5085858;27;52750;-61
2023/06/04 04:21:56;;;;;;;;;4.67;4.00;;;;;-147.17;100.00;48222.47;5085628;27;50942;-60
2023/06/04 04:24:27;;;;;;;;;5.00;5.00;;;;;-147.17;100.00;48297.25;5078614;27;52950;-61
2023/06/04 04:26:54;;;;;;;;;7.33;7.00;;;;;-147.17;100.00;48250.03;5074136;28;51326;-63
2023/06/04 04:29:24;;;;;;;;;8.00;7.00;;;;;-147.17;100.00;48311.03;5080714;27;53685;-62
2023/06/04 04:31:56;;;;;;;;;3.00;2.33;;;;;-147.17;100.00;48234.28;5079103;27;51082;-61
2023/06/04 04:34:23;;;;;;;;;5.00;4.67;;;;;-147.17;100.00;48253.97;5078951;27;51178;-61
2023/06/04 04:36:52;;;;;;;;;5.67;5.00;;;;;-147.17;100.00;48307.09;5073163;27;51834;-61
2023/06/04 04:39:22;;;;;;;;;5.67;5.00;;;;;-147.17;100.00;48289.38;5084664;27;51750;-60
2023/06/04 04:41:47;;;;;;;;;5.00;5.00;;;;;-147.17;100.00;48244.13;5093503;27;51110;-61
2023/06/04 04:44:13;;;;;;;;;5.00;4.67;;;;;-147.17;100.00;48281.50;5094121;27;50982;-63
2023/06/04 04:46:38;;;;;;;;;5.33;4.67;;;;;-147.17;100.00;48289.38;5093616;27;51086;-62
2023/06/04 04:49:03;;;;;;;;;4.33;4.33;;;;;-147.17;100.00;48385.78;5092436;27;66363;-61
2023/06/04 04:51:29;;;;;;;;;4.67;4.67;;;;;-147.17;100.00;48383.81;5092908;27;50991;-61
2023/06/04 04:53:54;;;;;;;;;5.67;4.00;;;;;-147.17;100.00;48431.03;5077866;27;51034;-61
2023/06/04 04:56:22;;;;;;;;;5.33;5.00;;;;;-147.17;100.00;48399.56;5072947;27;51080;-62
2023/06/04 04:58:47;;;;;;;;;3.67;3.67;;;;;-147.17;100.00;48375.94;5079670;27;50950;-61
2023/06/04 05:01:13;;;;;;;;;8.33;7.67;;;;;-147.17;100.00;48377.91;5078639;27;51126;-61
2023/06/04 05:03:38;;;;;;;;;5.33;5.00;;;;;-147.17;100.00;48295.28;5073343;27;50956;-61
2023/06/04 05:06:03;;;;;;;;;6.00;5.67;;;;;-147.17;100.00;48238.22;5072602;27;51860;-62
2023/06/04 05:08:29;;;;;;;;;4.33;4.00;;;;;-147.17;100.00;48167.41;5081881;27;51273;-62
2023/06/04 05:10:54;;;;;;;;;3.00;2.67;;;;;-147.17;100.00;48238.22;5093254;27;51098;-63
2023/06/04 05:13:20;;;;;;;;;12.33;11.67;;;;;-147.17;100.00;48403.50;5092139;27;50950;-61
2023/06/04 05:15:47;;;;;;;;;5.67;4.67;;;;;-147.17;100.00;48342.50;5080746;27;51209;-62
2023/06/04 05:18:13;;;;;;;;;4.33;4.33;;;;;-147.17;100.00;48488.09;5077391;27;51143;-63
2023/06/04 05:20:38;;;;;;;;;4.00;4.00;;;;;-147.17;100.00;48509.75;5093020;27;51129;-62
2023/06/04 05:23:04;;;;;;;;;8.33;8.33;;;;;-147.17;100.00;48704.56;5092091;27;51184;-61
2023/06/04 05:25:29;;;;;;;;;5.33;5.00;;;;;-147.17;100.00;48738.00;5080540;27;51278;-61
2023/06/04 05:27:56;;;;;;;;;5.67;4.00;;;;;-147.17;100.00;48858.03;5072216;28;51307;-61
2023/06/04 05:30:22;;;;;;;;;5.00;4.00;;;;;-147.17;100.00;48915.09;5091725;27;51089;-61
2023/06/04 05:32:50;;;;;;;;;4.33;4.00;;;;;-147.17;100.00;49044.97;5093141;27;51027;-61
2023/06/04 05:35:16;;;;;;;;;4.00;4.00;;;;;-147.17;100.00;49068.59;5093220;27;51387;-61
2023/06/04 05:37:41;;;;;;;;;5.00;5.00;;;;;-147.17;100.00;49037.13;5092571;27;51118;-62
2023/06/04 05:40:08;;;;;;;;;4.67;4.67;;;;;-147.17;100.00;49188.66;5086176;27;51047;-61
2023/06/04 05:42:34;;;;;;;;;6.00;6.00;;;;;-147.17;100.00;49281.13;5072580;27;51167;-61
2023/06/04 05:44:59;;;;;;;;;6.33;6.00;;;;;-147.17;100.00;49218.16;5070842;28;51233;-61
2023/06/04 05:47:25;;;;;;;;;7.00;7.00;;;;;-147.17;100.00;49328.38;5071795;27;52161;-61
2023/06/04 05:49:50;;;;;;;;;3.67;3.67;;;;;-147.17;100.00;49241.78;5086528;27;51089;-63
2023/06/04 05:52:15;;;;;;;;;4.33;4.00;;;;;-147.17;100.00;49253.59;5086927;27;51090;-63
2023/06/04 05:54:41;;;;;;;;;3.00;3.00;;;;;-147.17;100.00;49255.56;5072434;27;51096;-62
2023/06/04 05:57:06;;;;;;;;;4.00;4.00;;;;;-147.17;100.00;49202.41;5082804;27;52756;-61
2023/06/04 05:59:32;;;;;;;;;3.00;3.00;;;;;-147.17;100.00;49304.75;5070824;27;51219;-61
2023/06/04 06:01:57;;;;;;;;;3.00;2.33;;;;;-147.17;100.00;49212.25;5069186;27;51647;-62
2023/06/04 06:04:23;;;;;;;;;6.00;4.00;;;;;-147.17;100.00;49159.13;5092500;27;51071;-62
2023/06/04 06:06:49;;;;;;;;;3.00;3.00;;;;;-147.17;100.00;49133.53;5073179;27;51933;-62
2023/06/04 06:09:15;;;;;;;;;3.33;3.33;;;;;-147.17;100.00;49135.50;5082915;27;50985;-62
2023/06/04 06:11:40;;;;;;;;;7.33;7.33;;;;;-147.17;100.00;49131.56;5090682;27;51137;-62
2023/06/04 06:14:06;;;;;;;;;3.00;3.00;;;;;-147.17;100.00;49133.53;5090624;27;51435;-62
2023/06/04 06:16:32;;;;;;;;;6.00;6.00;;;;;-147.17;100.00;49074.50;5089581;27;51163;-62
2023/06/04 06:18:58;;;;;;;;;4.00;3.00;;;;;-147.17;100.00;49005.63;5083901;27;50993;-62
2023/06/04 06:21:23;;;;;;;;;3.00;3.00;;;;;-147.17;100.00;48976.09;5095098;27;51126;-63
2023/06/04 06:23:48;;;;;;;;;3.67;3.67;;;;;-147.17;100.00;48944.63;5086958;27;51241;-62
2023/06/04 06:26:14;;;;;;;;;4.00;4.00;;;;;-147.17;100.00;48903.28;5093765;27;58554;-62
2023/06/04 06:28:39;;;;;;;;;3.00;3.00;;;;;-147.17;100.00;48919.03;5082978;27;51103;-62
2023/06/04 06:31:05;;;;;;;;;3.33;3.00;;;;;-147.17;100.00;48897.41;5087290;27;51580;-61
2023/06/04 06:33:31;;;;;;;;;54.50;43.50;;;;;-147.17;100.00;48871.81;5094464;27;51033;-61
2023/06/04 06:35:59;;;;;;;;;3.00;3.00;;;;;-147.17;100.00;48830.50;5093007;27;51221;-62
2023/06/04 06:38:25;;;;;;;;;3.00;3.00;;;;;-147.17;100.00;48804.91;5076763;27;51089;-61
2023/06/04 06:40:50;;;;;;;;;3.33;3.33;;;;;-147.17;100.00;48686.84;5090159;27;50887;-62
2023/06/04 06:43:16;;;;;;;;;7.33;7.00;;;;;-147.17;100.00;48757.69;5095917;27;51005;-61
2023/06/04 06:45:41;;;;;;;;;7.33;7.33;;;;;-147.17;100.00;48682.91;5093040;27;51661;-62
2023/06/04 06:48:06;;;;;;;;;4.00;4.00;;;;;-147.17;100.00;48655.34;5095371;27;51016;-62
2023/06/04 06:50:33;;;;;;;;;6.00;5.00;;;;;-147.17;100.00;48553.03;5094858;27;51354;-63
2023/06/04 06:52:58;;;;;;;;;13.67;13.67;;;;;-147.17;100.00;48421.22;5085117;27;51269;-62
2023/06/04 06:55:23;;;;;;;;;4.33;4.33;;;;;-147.17;100.00;48419.25;5094050;27;51882;-62
2023/06/04 06:57:49;;;;;;;;;3.33;3.33;;;;;-147.17;100.00;48348.41;5092584;27;51204;-62
2023/06/04 07:00:15;;;;;;;;;4.00;4.00;;;;;-147.17;100.00;48344.47;5094171;27;51022;-62
2023/06/04 07:02:41;;;;;;;;;9.67;9.33;;;;;-147.17;100.00;48350.38;5089430;27;51400;-62
2023/06/04 07:05:06;;;;;;;;;2.33;2.00;;;;;-147.17;100.00;48324.78;5089379;27;52037;-63
2023/06/04 07:07:32;;;;;;;;;4.33;4.33;;;;;-147.17;100.00;48242.16;5095022;27;51659;-62
2023/06/04 07:09:57;;;;;;;;;5.67;4.67;;;;;-147.17;100.00;48183.13;5091736;27;51089;-63
2023/06/04 07:12:22;;;;;;;;;3.33;3.33;;;;;-147.17;100.00;48043.44;5085248;27;50977;-63
2023/06/04 07:14:48;;;;;;;;;3.00;3.00;;;;;-147.17;100.00;48037.53;5091437;27;51986;-63
2023/06/04 07:17:13;;;;;;;;;3.00;3.00;;;;;-147.17;100.00;47962.78;5087736;27;51175;-63
2023/06/04 07:19:38;;;;;;;;;6.00;5.67;;;;;-147.17;100.00;47829.00;5102160;27;53843;-63
2023/06/04 07:22:04;;;;;;;;;3.67;3.67;;;;;-147.17;100.00;47789.66;5093440;27;50987;-62
2023/06/04 07:24:29;;;;;;;;;4.00;4.00;;;;;-147.17;100.00;47714.91;5092665;27;51212;-62
2023/06/04 07:26:54;;;;;;;;;4.33;4.33;;;;;-147.17;100.00;47651.94;5093400;27;53252;-62
2023/06/04 07:29:20;;;;;;;;;2.00;2.00;;;;;-147.17;100.00;47535.88;5085612;27;51126;-62
2023/06/04 07:31:45;;;;;;;;;2.33;2.33;;;;;-147.17;100.00;47364.75;5086931;27;50944;-63
2023/06/04 07:34:10;;;;;;;;;1.33;1.00;;;;;-147.17;100.00;47404.09;5087974;27;53998;-62
2023/06/04 07:36:36;;;;;;;;;35.50;32.00;;;;;-147.17;100.00;47467.03;5073952;27;51107;-63
2023/06/04 07:39:04;;;;;;;;;4.00;3.67;;;;;-147.17;100.00;47429.66;5092804;27;51119;-63
2023/06/04 07:41:29;;;;;;;;;4.00;4.00;;;;;-147.17;100.00;47305.75;5094756;27;51071;-63
2023/06/04 07:43:55;;;;;;;;;3.00;3.00;;;;;-147.17;100.00;47272.31;5092903;27;52660;-63
2023/06/04 07:46:20;;;;;;;;;3.00;2.67;;;;;-147.17;100.00;47173.94;5093901;27;51127;-62
2023/06/04 07:48:45;;;;;;;;;3.00;3.00;;;;;-147.17;100.00;47032.31;5090712;27;51287;-63
2023/06/04 07:51:13;;;;;;;;;3.00;3.00;;;;;-147.17;100.00;46825.81;5086989;27;51328;-62
2023/06/04 07:53:38;;;;;;;;;3.00;2.33;;;;;-147.17;100.00;46660.59;5077582;27;51312;-63
2023/06/04 07:56:04;;;;;;;;;2.00;2.00;;;;;-147.17;100.00;46487.53;5073846;27;51105;-63
2023/06/04 07:58:29;;;;;;;;;2.33;2.33;;;;;-147.17;100.00;46357.75;5072214;28;51150;-63
2023/06/04 08:00:55;;;;;;;;;3.00;3.00;;;;;-147.17;100.00;46351.84;5090860;27;51334;-63
2023/06/04 08:03:20;;;;;;;;;3.00;3.00;;;;;-147.17;100.00;46235.81;5093666;27;51087;-63
2023/06/04 08:05:46;;;;;;;;;3.00;3.00;;;;;-147.17;100.00;46190.59;5093843;27;51102;-63
2023/06/04 08:08:11;;;;;;;;;2.67;2.67;;;;;-147.17;100.00;46121.75;5092872;27;50975;-63
2023/06/04 08:10:37;;;;;;;;;3.00;2.33;;;;;-147.17;100.00;45999.84;5092549;27;51152;-63
2023/06/04 08:13:02;;;;;;;;;3.00;3.00;;;;;-147.17;100.00;45846.47;5093364;27;51925;-63
2023/06/04 08:15:28;;;;;;;;;4.33;3.00;;;;;-147.17;100.00;45799.28;5078666;27;51178;-63
2023/06/04 08:17:53;;;;;;;;;2.33;1.67;;;;;-147.17;100.00;45524.00;5072898;27;51150;-63
2023/06/04 08:20:18;;;;;;;;;3.00;2.67;;;;;-147.17;100.00;45567.25;5075098;27;51230;-63
2023/06/04 08:22:43;;;;;;;;;3.00;3.00;;;;;-147.17;100.00;45551.53;5071208;28;52353;-63
2023/06/04 08:25:09;;;;;;;;;4.00;3.00;;;;;-147.17;100.00;45524.00;5085077;27;51225;-63
2023/06/04 08:27:34;;;;;;;;;3.00;3.00;;;;;-147.17;100.00;45390.31;5071979;27;51256;-63
2023/06/04 08:30:00;;;;;;;;;3.33;3.00;;;;;-147.17;100.00;45156.34;5081739;27;51152;-63
2023/06/04 08:32:26;;;;;;;;;3.00;2.33;;;;;-147.17;100.00;45134.72;5092840;27;51185;-64
2023/06/04 08:34:51;;;;;;;;;4.33;3.00;;;;;-147.17;100.00;45130.78;5093368;27;51075;-64
2023/06/04 08:37:17;;;;;;;;;3.00;3.00;;;;;-147.17;100.00;45150.44;5093535;27;51085;-63
2023/06/04 08:39:43;;;;;;;;;2.33;2.00;;;;;-147.17;100.00;45185.84;5087752;27;50957;-62
2023/06/04 08:42:19;;;;;;;;;19.67;18.00;;;;;-147.17;100.00;44971.56;5081118;27;52050;-63
2023/06/04 08:44:50;;;;;;;;;3.00;3.00;;;;;-147.17;100.00;44894.88;5091621;27;50961;-63
2023/06/04 08:47:18;;;;;;;;;3.00;3.00;;;;;-147.17;100.00;44737.63;5092686;27;51262;-64
2023/06/04 08:49:48;;;;;;;;;2.00;2.00;;;;;-147.17;100.00;44462.44;5091754;27;51076;-63
2023/06/04 08:52:14;;;;;;;;;4.00;3.67;;;;;-147.17;100.00;44275.69;5092175;27;52062;-63
2023/06/04 08:54:39;;;;;;;;;2.33;2.33;;;;;-147.17;100.00;44411.31;5091467;27;51088;-63
2023/06/04 08:57:05;;;;;;;;;2.67;2.67;;;;;-147.17;100.00;44427.03;5087640;27;51072;-63
2023/06/04 08:59:31;;;;;;;;;2.67;2.67;;;;;-147.17;100.00;44254.06;5076343;27;51063;-64
2023/06/04 09:01:57;;;;;;;;;3.33;3.00;;;;;-147.17;100.00;44299.28;5081749;27;51726;-62
2023/06/04 09:04:22;;;;;;;;;10.00;9.67;;;;;-147.17;100.00;44309.09;5072871;27;51095;-64
2023/06/04 09:06:49;;;;;;;;;6.00;6.00;;;;;-147.17;100.00;44151.88;5072572;28;51060;-64
2023/06/04 09:09:18;;;;;;;;;3.33;2.67;;;;;-147.17;100.00;44140.06;5082092;27;50861;-64
2023/06/04 09:11:52;;;;;;;;;3.00;3.00;;;;;-147.17;100.00;44263.91;5089571;27;51555;-64
2023/06/04 09:14:18;;;;;;;;;4.00;3.00;;;;;-147.17;100.00;44438.84;5078042;27;51146;-64
2023/06/04 09:16:48;;;;;;;;;2.33;2.33;;;;;-147.17;100.00;44442.78;5072456;28;51112;-64
2023/06/04 09:19:14;;;;;;;;;2.00;2.00;;;;;-147.17;100.00;44301.25;5072159;27;51359;-64
2023/06/04 09:21:51;;;;;;;;;4.00;4.00;;;;;-147.17;100.00;44145.97;5084648;27;51860;-64
2023/06/04 09:24:18;;;;;;;;;2.00;2.00;;;;;-147.17;100.00;44043.78;5071484;27;51025;-64
2023/06/04 09:26:43;;;;;;;;;3.00;3.00;;;;;-147.17;100.00;43947.47;5071998;27;51043;-64
2023/06/04 09:29:09;;;;;;;;;3.00;3.00;;;;;-147.17;100.00;44330.72;5071850;27;51041;-64
2023/06/04 09:31:39;;;;;;;;;2.00;2.00;;;;;-147.17;100.00;44582.34;5085277;27;52222;-64
2023/06/04 09:34:05;;;;;;;;;2.00;2.00;;;;;-147.17;100.00;44607.88;5071409;27;50949;-65
2023/06/04 09:36:32;;;;;;;;;4.00;4.00;;;;;-147.17;100.00;44889.00;5071608;27;50954;-64
2023/06/04 09:38:57;;;;;;;;;4.00;3.00;;;;;-147.17;100.00;44959.75;5070488;28;50997;-64
2023/06/04 09:41:22;;;;;;;;;2.00;2.00;;;;;-147.17;100.00;45337.22;5089847;27;51184;-64
2023/06/04 09:43:49;;;;;;;;;2.67;2.00;;;;;-147.17;100.00;45620.34;5089019;27;51378;-65
2023/06/04 09:46:16;;;;;;;;;2.67;2.67;;;;;-147.17;100.00;45584.97;5092202;27;51014;-64
2023/06/04 09:48:43;;;;;;;;;3.00;3.00;;;;;-147.17;100.00;45807.13;5090944;27;51426;-65
2023/06/04 09:51:08;;;;;;;;;0.00;0.00;;;;;-147.17;100.00;46070.63;5089325;27;52874;-64
2023/06/04 09:53:33;;;;;;;;;2.00;2.00;;;;;-147.17;100.00;46235.81;5091594;27;51061;-64
2023/06/04 09:56:01;;;;;;;;;3.00;2.67;;;;;-147.17;100.00;46157.16;5097103;27;50955;-64
2023/06/04 09:58:28;;;;;;;;;6.00;6.00;;;;;-147.17;100.00;45991.97;5084679;27;51141;-64
2023/06/04 10:00:58;;;;;;;;;0.00;0.00;;;;;-147.17;100.00;46174.84;5085868;27;51181;-64
2023/06/04 10:03:27;;;;;;;;;3.00;3.00;;;;;-147.17;100.00;46536.69;5087861;27;51298;-64
2023/06/04 10:05:55;;;;;;;;;3.00;3.00;;;;;-147.17;100.00;47323.44;5091888;27;51242;-64
2023/06/04 10:08:22;;;;;;;;;2.67;2.67;;;;;-147.17;100.00;47669.66;5090884;27;51152;-62
2023/06/04 10:10:52;;;;;;;;;3.00;2.00;;;;;-147.17;100.00;47779.81;5095710;27;52391;-63
2023/06/04 10:13:18;;;;;;;;;2.00;2.00;;;;;-147.17;100.00;47797.53;5100276;27;51201;-64
2023/06/04 10:15:46;;;;;;;;;2.67;2.67;;;;;-147.17;100.00;47858.50;5102398;27;50997;-64
2023/06/04 10:18:14;;;;;;;;;2.00;2.00;;;;;-147.17;100.00;48063.13;5090648;27;51141;-63
2023/06/04 10:20:40;;;;;;;;;4.00;3.67;;;;;-147.17;100.00;47787.69;5080591;27;51843;-64
2023/06/04 10:23:07;;;;;;;;;2.00;2.00;;;;;-147.17;100.00;47836.88;5106502;27;51011;-62
2023/06/04 10:25:35;;;;;;;;;2.00;2.00;;;;;-147.17;100.00;48015.91;5093346;27;51060;-65
2023/06/04 10:28:01;;;;;;;;;4.00;4.00;;;;;-147.17;100.00;48320.88;5093659;27;50977;-62
2023/06/04 10:30:27;;;;;;;;;3.00;3.00;;;;;-147.17;100.00;48513.69;5088827;27;51101;-62
2023/06/04 10:32:53;;;;;;;;;3.00;3.00;;;;;-147.17;100.00;48840.31;5094939;27;51065;-63
2023/06/04 10:35:30;;;;;;;;;3.00;3.00;;;;;-147.17;100.00;49190.63;5091276;27;51104;-63
2023/06/04 10:38:08;;;;;;;;;3.33;3.33;;;;;-147.17;100.00;49324.44;5093953;27;51050;-63
2023/06/04 10:40:34;;;;;;;;;3.00;2.00;;;;;-147.17;100.00;49456.28;5081695;27;51753;-63
2023/06/04 10:43:08;;;;;;;;;2.00;2.00;;;;;-147.17;100.00;49615.72;5098398;27;51144;-63
2023/06/04 10:45:34;;;;;;;;;2.67;2.67;;;;;-147.17;100.00;49706.25;5095321;27;51110;-63
2023/06/04 10:48:04;;;;;;;;;3.67;3.33;;;;;-147.17;100.00;49751.53;5089864;27;52242;-63
2023/06/04 10:50:29;;;;;;;;;3.67;3.67;;;;;-147.17;100.00;49759.41;5090584;27;52012;-62
2023/06/04 10:52:57;;;;;;;;;3.00;2.33;;;;;-147.17;100.00;49788.91;5095976;27;51249;-63
2023/06/04 10:55:23;;;;;;;;;3.00;3.00;;;;;-147.17;100.00;49812.53;5079632;27;50981;-63
2023/06/04 10:57:53;;;;;;;;;3.33;3.33;;;;;-147.17;100.00;49855.84;5103097;27;51069;-63
2023/06/04 11:00:19;;;;;;;;;5.00;4.00;;;;;-147.17;100.00;49944.41;5085990;27;52724;-63
2023/06/04 11:02:55;;;;;;;;;4.00;3.00;;;;;-147.17;100.00;49928.66;5079232;27;50903;-62
2023/06/04 11:05:21;;;;;;;;;8.67;6.33;;;;;-147.17;100.00;49932.59;5081075;27;51082;-62